Weather at Lackland Air Force Base

Public forecast

Using degrees Fahrenheit for public forecast. Weather courtesy of forecast.io.

Current aviation weather report (METAR) for Lackland Air Force Base

2024/07/17 18:55 (retrieved 8 minutes ago)

KSKF 171855Z 11006KT 10SM SCT050 SCT200 35/21 A2998 RMK AO2A SLP143 T03540205

Aviation forecast (TAF) for Lackland Air Force Base

2024/07/17 18:59 (retrieved 4 minutes ago)

TAF KSKF 171800Z 1718/1900 15009KT 9999 FEW050 FEW200 QNH2988INS BECMG 1808/1809 VRB05KT 9999 BKN200 QNH2999INS BECMG 1815/1816 04010KT 9000 -SHRA VCTS BKN020CB BKN200 QNH2992INS BECMG 1818/1819 32010KT 9999 VCSH SCT030 SCT200 QNH2994INS TX37/1721Z TN25/1812Z